Bo Jerusalem, Puerto Rico
Current Conditions -  °F | °C
As of 4:53 AM on Friday 19 Dec 2014 (Local Time) from TJNR Reporting Station
Scattered Clouds Scattered Clouds  
Wind Chill: 78°   Ceiling: Unl
Heat Index: 80°   Visibility: 10mi
Dew Point: 67°   Wind: 9mph
Humidity: 68%   Direction: 60°ENE
Pressure: 29.96"   Gusts: NA
Location:  18.3304°N, 65.6573°W
Report Text: TJNR 190853Z AUTO 06008KT 10SM SCT034 26/19 A2996 RMK AO2 SLP144 T02560194 55009 $
Loading
Personal Weather Stations






























Interactive Weather Map New forecast layout! Learn more

10-Day Weather Forecast

Advertisements
Track Severe Weather on mobile